createdAt,value
2019-06-07T00:00:39.209Z,18.97
2019-06-07T00:03:01.172Z,21.20
2019-06-07T00:05:28.242Z,22.00
2019-06-07T00:08:07.152Z,16.80
2019-06-07T00:10:37.027Z,15.80
2019-06-07T00:12:56.042Z,20.40
2019-06-07T00:15:28.803Z,17.33
2019-06-07T00:17:52.124Z,20.27
2019-06-07T00:20:23.456Z,17.83
2019-06-07T00:22:48.496Z,18.10
2019-06-07T00:25:20.266Z,16.90
2019-06-07T00:27:44.648Z,22.67
2019-06-07T00:30:40.096Z,22.43
2019-06-07T00:32:41.325Z,17.53
2019-06-07T00:35:09.141Z,20.97
2019-06-07T00:37:36.486Z,19.97
2019-06-07T00:40:14.225Z,16.30
2019-06-07T00:42:33.545Z,22.57
2019-06-07T00:45:01.779Z,18.67
2019-06-07T00:47:28.877Z,20.30
2019-06-07T00:49:55.919Z,16.70
2019-06-07T00:53:11.626Z,19.57
2019-06-07T00:54:51.980Z,17.93
2019-06-07T00:57:19.869Z,18.80
2019-06-07T00:59:48.186Z,21.17
2019-06-07T01:02:16.691Z,23.27
2019-06-07T01:04:44.254Z,16.43
2019-06-07T01:07:11.325Z,19.90
2019-06-07T01:09:41.174Z,17.73
2019-06-07T01:12:08.273Z,16.63
2019-06-07T01:14:35.353Z,17.67
2019-06-07T01:17:27.566Z,17.23
2019-06-07T01:19:42.717Z,15.97
2019-06-07T01:22:09.785Z,17.00
2019-06-07T01:24:36.863Z,16.97
2019-06-07T01:27:03.979Z,15.97
2019-06-07T01:29:31.341Z,19.03
2019-06-07T01:31:58.528Z,16.70
2019-06-07T01:34:26.903Z,18.80
2019-06-07T01:36:54.232Z,18.07
2019-06-07T01:39:24.078Z,17.13
2019-06-07T01:41:50.283Z,19.40
2019-06-07T01:44:18.563Z,20.93
2019-06-07T01:46:46.339Z,17.37
2019-06-07T01:49:13.403Z,20.97
2019-06-07T01:51:40.492Z,29.10
2019-06-07T01:54:49.268Z,18.23
2019-06-07T01:56:36.578Z,19.83
2019-06-07T01:59:03.650Z,20.03
2019-06-07T02:01:35.375Z,20.30
2019-06-07T02:04:00.850Z,19.13
2019-06-07T02:06:32.035Z,20.33
2019-06-07T02:08:56.936Z,23.53
2019-06-07T02:11:25.988Z,23.83
2019-06-07T02:13:52.975Z,21.40
2019-06-07T02:16:21.702Z,19.23
2019-06-07T02:19:01.040Z,24.77
2019-06-07T02:21:17.948Z,22.73
2019-06-07T02:23:45.027Z,21.27
2019-06-07T02:26:12.107Z,21.43
2019-06-07T02:28:45.675Z,19.27
2019-06-07T02:31:08.166Z,22.80
2019-06-07T02:33:40.355Z,17.97
2019-06-07T02:36:04.224Z,24.67
2019-06-07T02:38:37.052Z,19.73
2019-06-07T02:41:00.372Z,21.00
2019-06-07T02:43:32.449Z,18.83
2019-06-07T02:45:56.511Z,23.27
2019-06-07T02:48:26.489Z,20.37
2019-06-07T02:50:52.673Z,24.50
2019-06-07T02:53:19.776Z,15.57
2019-06-07T02:56:34.125Z,19.23
2019-06-07T02:58:15.943Z,16.77
2019-06-07T03:01:06.158Z,20.93
2019-06-07T03:03:16.200Z,18.33
2019-06-07T03:05:44.172Z,16.13
2019-06-07T03:08:13.077Z,21.30
2019-06-07T03:10:42.979Z,17.37
2019-06-07T03:13:11.375Z,20.27
2019-06-07T03:15:49.296Z,23.83
2019-06-07T03:18:36.214Z,18.73
2019-06-07T03:21:05.668Z,16.93
2019-06-07T03:23:34.393Z,16.80
2019-06-07T03:26:03.639Z,23.50
2019-06-07T03:28:35.583Z,19.13
2019-06-07T03:31:02.623Z,19.77
2019-06-07T03:33:32.392Z,19.23
2019-06-07T03:35:58.323Z,21.80
2019-06-07T03:38:27.567Z,19.03
2019-06-07T03:40:54.373Z,17.40
2019-06-07T03:43:21.491Z,19.00
2019-06-07T03:45:48.588Z,21.30
2019-06-07T03:48:15.671Z,17.40
2019-06-07T03:50:42.748Z,16.13
2019-06-07T03:53:09.826Z,20.30
2019-06-07T03:55:39.072Z,19.23
2019-06-07T04:00:37.367Z,18.57
2019-06-07T04:03:03.872Z,14.90
2019-06-07T04:05:32.791Z,15.07
2019-06-07T04:08:00.292Z,17.40
2019-06-07T04:10:49.556Z,17.97
2019-06-07T04:12:56.360Z,19.03
2019-06-07T04:15:23.436Z,14.57
2019-06-07T04:18:01.912Z,13.90
2019-06-07T04:20:19.472Z,16.70
2019-06-07T04:22:46.546Z,16.37
2019-06-07T04:25:13.920Z,14.77
2019-06-07T04:27:41.333Z,18.50
2019-06-07T04:30:09.286Z,13.77
2019-06-07T04:32:39.467Z,16.27
2019-06-07T04:35:05.492Z,13.67
2019-06-07T04:37:33.509Z,16.37
2019-06-07T04:40:02.255Z,15.20
2019-06-07T04:42:34.556Z,15.17
2019-06-07T04:45:00.482Z,18.13
2019-06-07T04:47:29.679Z,22.20
2019-06-07T04:49:59.613Z,16.70
2019-06-07T04:52:29.932Z,14.43
2019-06-07T04:54:57.517Z,17.00
2019-06-07T04:57:24.584Z,13.13
2019-06-07T05:00:11.854Z,16.93
2019-06-07T05:02:20.647Z,14.00
2019-06-07T05:04:47.768Z,12.30
2019-06-07T05:07:14.888Z,14.53
2019-06-07T05:09:43.356Z,15.63
2019-06-07T05:12:10.583Z,14.37
2019-06-07T05:14:39.972Z,14.40
2019-06-07T05:17:06.648Z,17.37
2019-06-07T05:19:38.101Z,21.87
2019-06-07T05:22:05.040Z,12.53
2019-06-07T05:24:37.688Z,14.03
2019-06-07T05:27:00.782Z,13.57
2019-06-07T05:29:27.865Z,13.20
2019-06-07T05:31:55.348Z,13.97
2019-06-07T05:34:22.431Z,13.10
2019-06-07T05:37:10.482Z,16.27
2019-06-07T05:39:18.467Z,15.67
2019-06-07T05:41:45.538Z,15.50
2019-06-07T05:44:14.936Z,15.57
2019-06-07T05:46:46.702Z,16.17
2019-06-07T05:49:10.577Z,17.97
2019-06-07T05:51:41.569Z,16.70
2019-06-07T05:54:06.626Z,12.93
2019-06-07T05:56:35.721Z,12.60
2019-06-07T05:59:02.707Z,11.60
2019-06-07T06:01:56.641Z,11.83
2019-06-07T06:03:58.759Z,13.83
2019-06-07T06:06:25.819Z,11.90
2019-06-07T06:09:11.012Z,14.73
2019-06-07T06:11:21.903Z,11.63
2019-06-07T06:14:05.654Z,12.00
2019-06-07T06:16:17.965Z,11.67
2019-06-07T06:18:47.114Z,13.70
2019-06-07T06:21:19.356Z,14.70
2019-06-07T06:23:45.838Z,9.70
2019-06-07T06:26:12.003Z,11.97
2019-06-07T06:28:40.112Z,14.57
2019-06-07T06:31:07.395Z,16.70
2019-06-07T06:33:35.040Z,13.10
2019-06-07T06:36:02.349Z,14.10
2019-06-07T06:38:29.404Z,12.27
2019-06-07T06:41:14.390Z,14.43
2019-06-07T06:43:25.484Z,11.53
2019-06-07T06:45:52.559Z,11.57
2019-06-07T06:48:19.797Z,7.73
2019-06-07T06:50:51.842Z,8.30
2019-06-07T06:53:15.878Z,12.27
2019-06-07T06:55:43.925Z,8.57
2019-06-07T06:58:11.817Z,9.77
2019-06-07T07:01:04.931Z,10.83
2019-06-07T07:06:24.179Z,8.07
2019-06-07T07:08:27.664Z,9.57
2019-06-07T07:10:55.259Z,9.57
2019-06-07T07:13:22.618Z,12.37
2019-06-07T07:15:55.208Z,9.10
2019-06-07T07:18:18.722Z,11.73
2019-06-07T07:20:47.713Z,11.17
2019-06-07T07:23:14.788Z,12.80
2019-06-07T07:25:43.511Z,8.00
2019-06-07T07:28:10.960Z,11.10
2019-06-07T07:30:44.776Z,11.10
2019-06-07T07:33:12.234Z,13.00
2019-06-07T07:35:39.376Z,8.07
2019-06-07T07:38:08.272Z,9.33
2019-06-07T07:40:56.913Z,10.00
2019-06-07T07:43:04.494Z,7.50
2019-06-07T07:45:31.571Z,9.33
2019-06-07T07:48:14.735Z,8.30
2019-06-07T07:50:27.624Z,6.93
2019-06-07T07:53:00.113Z,10.00
2019-06-07T07:55:24.043Z,6.97
2019-06-07T07:57:56.808Z,6.73
2019-06-07T08:02:53.156Z,7.57
2019-06-07T08:05:25.574Z,7.47
2019-06-07T08:07:53.092Z,6.13
2019-06-07T08:10:18.575Z,8.87
2019-06-07T08:13:08.932Z,5.97
2019-06-07T08:15:14.743Z,10.00
2019-06-07T08:17:41.867Z,7.10
2019-06-07T08:20:10.260Z,8.07
2019-06-07T08:22:37.823Z,10.43
2019-06-07T08:25:05.455Z,8.67
2019-06-07T08:27:32.749Z,7.50
2019-06-07T08:30:26.115Z,8.10
2019-06-07T08:32:28.930Z,6.40
2019-06-07T08:35:01.712Z,9.20
2019-06-07T08:38:13.544Z,3.87
2019-06-07T08:39:56.769Z,5.97
2019-06-07T08:42:36.529Z,4.27
2019-06-07T08:44:56.019Z,5.20
2019-06-07T08:47:22.426Z,6.93
2019-06-07T08:49:50.648Z,4.60
2019-06-07T08:52:18.656Z,6.43
2019-06-07T08:54:45.951Z,6.43
2019-06-07T08:57:21.159Z,10.00
2019-06-07T08:59:42.031Z,7.00
2019-06-07T09:02:22.959Z,8.90
2019-06-07T09:04:38.107Z,6.77
2019-06-07T09:07:19.001Z,6.73
2019-06-07T09:09:34.195Z,6.43
2019-06-07T09:12:08.169Z,6.80
2019-06-07T09:14:32.087Z,7.43
2019-06-07T09:17:04.427Z,8.30
2019-06-07T09:19:28.266Z,5.77
2019-06-07T09:22:01.551Z,7.80
2019-06-07T09:24:26.122Z,7.73
2019-06-07T09:26:53.387Z,8.30
2019-06-07T09:29:21.073Z,5.33
2019-06-07T09:31:53.385Z,6.90
2019-06-07T09:34:18.318Z,7.60
2019-06-07T09:36:46.601Z,5.13
2019-06-07T09:39:13.722Z,5.83
2019-06-07T09:41:49.329Z,8.93
2019-06-07T09:44:21.462Z,6.13
2019-06-07T09:46:38.735Z,5.47
2019-06-07T09:49:32.240Z,5.43
2019-06-07T09:51:34.778Z,5.47
2019-06-07T09:54:06.898Z,5.40
2019-06-07T09:56:30.853Z,3.30
2019-06-07T09:59:00.340Z,6.43
2019-06-07T10:01:26.895Z,6.30
2019-06-07T10:03:54.044Z,2.97
2019-06-07T10:06:21.931Z,5.07
2019-06-07T10:11:17.984Z,5.23
2019-06-07T10:13:45.055Z,6.00
2019-06-07T10:16:12.119Z,4.43
2019-06-07T10:18:39.233Z,6.03
2019-06-07T10:21:07.813Z,5.47
2019-06-07T10:23:35.288Z,4.97
2019-06-07T10:26:03.958Z,4.13
2019-06-07T10:28:31.124Z,5.70
2019-06-07T10:30:58.197Z,4.10
2019-06-07T10:33:25.291Z,7.20
2019-06-07T10:35:52.404Z,5.03
2019-06-07T10:38:19.481Z,2.70
2019-06-07T10:40:46.559Z,5.90
2019-06-07T10:43:14.599Z,5.60
2019-06-07T10:45:41.858Z,9.37
2019-06-07T10:48:09.946Z,5.33
2019-06-07T10:50:37.248Z,13.00
2019-06-07T10:53:04.400Z,4.63
2019-06-07T10:55:31.435Z,6.53
2019-06-07T10:58:00.306Z,7.10
2019-06-07T11:00:28.988Z,6.30
2019-06-07T11:02:56.070Z,4.67
2019-06-07T11:05:23.165Z,9.30
2019-06-07T11:07:50.302Z,6.90
2019-06-07T11:10:20.030Z,10.30
2019-06-07T11:12:46.652Z,9.15
2019-06-07T11:15:15.583Z,5.90
2019-06-07T11:17:42.655Z,7.00
2019-06-07T11:20:12.440Z,8.10
2019-06-07T11:22:39.618Z,9.77
2019-06-07T11:25:09.223Z,7.30
2019-06-07T11:27:38.550Z,7.97
2019-06-07T11:30:06.287Z,11.57
2019-06-07T11:32:33.505Z,7.80
2019-06-07T11:35:02.292Z,7.90
2019-06-07T11:37:29.358Z,8.80
2019-06-07T11:39:56.463Z,10.00
2019-06-07T11:42:23.557Z,7.10
2019-06-07T11:44:56.961Z,8.75
2019-06-07T11:47:19.939Z,6.30
2019-06-07T11:49:47.059Z,10.50
2019-06-07T11:52:17.830Z,8.67
2019-06-07T11:54:48.084Z,8.93
2019-06-07T11:57:15.144Z,8.23
2019-06-07T11:59:42.286Z,6.30
2019-06-07T12:02:09.354Z,12.78
2019-06-07T12:04:36.439Z,8.57
2019-06-07T12:07:03.553Z,10.83
2019-06-07T12:09:30.691Z,5.13
2019-06-07T12:11:57.765Z,15.50
2019-06-07T12:14:24.848Z,6.75
2019-06-07T12:16:51.941Z,9.95
2019-06-07T12:19:19.804Z,10.63
2019-06-07T12:21:46.987Z,8.88
2019-06-07T12:24:16.214Z,7.27
2019-06-07T12:26:43.476Z,7.83
2019-06-07T12:29:10.761Z,10.25
2019-06-07T12:31:37.907Z,10.57
2019-06-07T12:34:04.991Z,7.80
2019-06-07T12:36:32.078Z,10.13
2019-06-07T12:38:59.147Z,11.17
2019-06-07T12:41:26.222Z,9.93
2019-06-07T12:43:53.345Z,9.00
2019-06-07T12:46:26.064Z,9.23
2019-06-07T12:48:49.510Z,11.83
2019-06-07T12:51:17.225Z,8.53
2019-06-07T12:53:44.422Z,10.55
2019-06-07T12:56:11.505Z,7.07
2019-06-07T12:58:39.536Z,8.20
2019-06-07T13:01:06.862Z,6.57
2019-06-07T13:03:33.934Z,7.23
2019-06-07T13:06:03.000Z,5.30
2019-06-07T13:08:30.149Z,8.60
2019-06-07T13:11:13.620Z,11.83
2019-06-07T13:13:26.271Z,12.57
2019-06-07T13:15:53.372Z,6.67
2019-06-07T13:18:21.743Z,9.40
2019-06-07T13:20:49.415Z,7.93
2019-06-07T13:23:16.487Z,9.43
2019-06-07T13:25:46.563Z,8.30
2019-06-07T13:28:12.539Z,8.85
2019-06-07T13:30:39.603Z,8.88
2019-06-07T13:33:06.685Z,7.70
2019-06-07T13:35:33.767Z,8.45
2019-06-07T13:38:00.836Z,9.53
2019-06-07T13:40:28.679Z,8.33
2019-06-07T13:42:55.886Z,11.73
2019-06-07T13:45:24.307Z,8.38
2019-06-07T13:47:51.834Z,13.05
2019-06-07T13:50:19.671Z,6.05
2019-06-07T13:52:48.389Z,11.63
2019-06-07T13:55:15.848Z,9.07
2019-06-07T13:57:42.910Z,6.60
2019-06-07T14:00:11.471Z,9.33
2019-06-07T14:02:38.778Z,8.30
2019-06-07T14:05:06.560Z,8.40
2019-06-07T14:07:33.840Z,7.33
2019-06-07T14:10:00.909Z,7.28
2019-06-07T14:12:27.983Z,10.13
2019-06-07T14:14:55.053Z,8.80
2019-06-07T14:17:23.240Z,10.53
2019-06-07T14:19:50.429Z,9.45
2019-06-07T14:22:17.507Z,6.15
2019-06-07T14:24:44.581Z,11.77
2019-06-07T14:27:11.687Z,10.68
2019-06-07T14:29:39.155Z,9.83
2019-06-07T14:32:06.738Z,9.83
2019-06-07T14:34:34.120Z,14.68
2019-06-07T14:37:01.344Z,11.60
2019-06-07T14:39:29.476Z,9.58
2019-06-07T14:42:08.534Z,6.53
2019-06-07T14:44:27.699Z,8.10
2019-06-07T14:46:54.874Z,10.68
2019-06-07T14:49:22.014Z,10.88
2019-06-07T14:51:49.091Z,16.52
2019-06-07T14:54:16.170Z,14.80
2019-06-07T14:56:43.333Z,8.53
2019-06-07T14:59:10.458Z,13.20
2019-06-07T15:01:37.526Z,6.47
2019-06-07T15:04:04.824Z,9.08
2019-06-07T15:06:32.781Z,8.43
2019-06-07T15:08:59.977Z,8.13
2019-06-07T15:11:27.103Z,7.15
2019-06-07T15:13:54.177Z,6.90
2019-06-07T15:16:21.259Z,7.22
2019-06-07T15:18:48.351Z,8.95
2019-06-07T15:21:15.414Z,7.53
2019-06-07T15:23:42.479Z,7.12
2019-06-07T15:26:09.551Z,9.08
2019-06-07T15:28:38.494Z,9.83
2019-06-07T15:31:05.562Z,9.48
2019-06-07T15:33:34.241Z,6.72
2019-06-07T15:36:01.505Z,8.25
2019-06-07T15:38:29.191Z,10.93
2019-06-07T15:40:56.381Z,8.70
2019-06-07T15:43:23.568Z,11.95
2019-06-07T15:45:58.260Z,12.43
2019-06-07T15:48:25.324Z,7.55
2019-06-07T15:50:52.400Z,9.13
2019-06-07T15:53:19.490Z,7.72
2019-06-07T15:55:46.582Z,11.80
2019-06-07T15:58:13.662Z,8.55
2019-06-07T16:00:42.480Z,7.28
2019-06-07T16:03:09.726Z,9.63
2019-06-07T16:05:36.803Z,8.23
2019-06-07T16:08:04.379Z,9.73
2019-06-07T16:10:32.615Z,9.93
2019-06-07T16:13:00.955Z,7.97
2019-06-07T16:15:28.233Z,9.73
2019-06-07T16:17:55.320Z,12.13
2019-06-07T16:20:22.431Z,9.10
2019-06-07T16:22:49.551Z,7.95
2019-06-07T16:25:18.623Z,8.20
2019-06-07T16:27:45.725Z,9.50
2019-06-07T16:30:13.696Z,7.90
2019-06-07T16:32:41.822Z,10.13
2019-06-07T16:35:11.463Z,9.00
2019-06-07T16:37:38.749Z,9.90
2019-06-07T16:40:06.201Z,9.30
2019-06-07T16:42:33.279Z,10.03
2019-06-07T16:45:00.359Z,9.88
2019-06-07T16:47:28.536Z,8.68
2019-06-07T16:49:55.617Z,9.45
2019-06-07T16:52:22.690Z,10.23
2019-06-07T16:54:49.779Z,7.85
2019-06-07T16:57:16.859Z,7.90
2019-06-07T16:59:48.609Z,11.97
2019-06-07T17:02:12.939Z,8.80
2019-06-07T17:04:40.009Z,6.17
2019-06-07T17:07:07.101Z,7.30
2019-06-07T17:09:34.177Z,10.80
2019-06-07T17:12:01.250Z,9.13
2019-06-07T17:14:28.327Z,11.33
2019-06-07T17:16:55.405Z,6.70
2019-06-07T17:19:22.487Z,9.17
2019-06-07T17:21:49.670Z,11.03
2019-06-07T17:24:16.862Z,10.63
2019-06-07T17:26:43.949Z,10.53
2019-06-07T17:29:11.024Z,10.73
2019-06-07T17:31:38.102Z,10.13
2019-06-07T17:34:05.178Z,10.60
2019-06-07T17:36:32.266Z,11.63
2019-06-07T17:38:59.339Z,12.27
2019-06-07T17:41:26.456Z,9.50
2019-06-07T17:43:59.989Z,10.40
2019-06-07T17:46:22.527Z,12.40
2019-06-07T17:48:49.793Z,9.27
2019-06-07T17:51:16.877Z,10.93
2019-06-07T17:53:43.974Z,13.40
2019-06-07T17:56:11.039Z,8.93
2019-06-07T17:58:38.098Z,12.10
2019-06-07T18:01:05.184Z,12.27
2019-06-07T18:03:32.245Z,11.73
2019-06-07T18:06:01.553Z,9.07
2019-06-07T18:08:29.231Z,9.17
2019-06-07T18:10:56.308Z,9.43
2019-06-07T18:13:23.411Z,10.33
2019-06-07T18:15:53.982Z,9.73
2019-06-07T18:18:19.491Z,13.73
2019-06-07T18:20:47.192Z,9.47
2019-06-07T18:23:14.642Z,11.23
2019-06-07T18:25:41.918Z,9.90
2019-06-07T18:28:08.993Z,13.70
2019-06-07T18:30:36.258Z,10.50
2019-06-07T18:33:03.493Z,11.73
2019-06-07T18:35:30.600Z,13.63
2019-06-07T18:37:57.691Z,11.10
2019-06-07T18:40:24.787Z,11.17
2019-06-07T18:42:52.982Z,13.30
2019-06-07T18:45:20.375Z,12.10
2019-06-07T18:47:49.456Z,17.03
2019-06-07T18:50:16.890Z,15.20
2019-06-07T18:52:46.572Z,13.40
2019-06-07T18:55:14.684Z,10.87
2019-06-07T18:57:41.766Z,13.97
2019-06-07T19:00:10.335Z,13.87
2019-06-07T19:02:37.452Z,14.23
2019-06-07T19:05:05.381Z,10.83
2019-06-07T19:07:32.474Z,12.40
2019-06-07T19:09:59.572Z,12.40
2019-06-07T19:12:26.627Z,14.60
2019-06-07T19:14:53.717Z,13.30
2019-06-07T19:17:20.795Z,12.33
2019-06-07T19:19:47.900Z,16.60
2019-06-07T19:22:14.988Z,10.10
2019-06-07T19:24:42.062Z,13.00
2019-06-07T19:27:09.140Z,12.70
2019-06-07T19:29:36.236Z,12.33
2019-06-07T19:32:03.373Z,10.17
2019-06-07T19:34:30.424Z,14.20
2019-06-07T19:36:57.820Z,13.70
2019-06-07T19:39:26.123Z,12.27
2019-06-07T19:41:54.205Z,14.57
2019-06-07T19:44:21.283Z,12.00
2019-06-07T19:46:48.367Z,11.70
2019-06-07T19:49:15.473Z,13.90
2019-06-07T19:51:42.571Z,13.20
2019-06-07T19:54:09.662Z,14.83
2019-06-07T19:56:36.748Z,11.80
2019-06-07T19:59:04.286Z,15.50
2019-06-07T20:01:31.517Z,12.57
2019-06-07T20:03:59.947Z,12.00
2019-06-07T20:06:27.083Z,14.10
2019-06-07T20:08:54.367Z,13.80
2019-06-07T20:11:22.655Z,13.93
2019-06-07T20:13:49.747Z,15.00
2019-06-07T20:16:16.892Z,25.60
2019-06-07T20:18:44.005Z,16.03
2019-06-07T20:21:11.112Z,19.40
2019-06-07T20:23:38.235Z,15.47
2019-06-07T20:26:06.707Z,14.00
2019-06-07T20:28:33.923Z,14.37
2019-06-07T20:31:01.972Z,12.93
2019-06-07T20:33:29.124Z,15.03
2019-06-07T20:35:56.602Z,16.20
2019-06-07T20:38:23.799Z,13.83
2019-06-07T20:40:50.885Z,13.17
2019-06-07T20:43:17.979Z,17.23
2019-06-07T20:45:45.210Z,13.67
2019-06-07T20:48:12.294Z,14.17
2019-06-07T20:50:39.379Z,15.03
2019-06-07T20:53:07.190Z,16.37
2019-06-07T20:55:34.444Z,14.00
2019-06-07T20:58:03.567Z,18.07
2019-06-07T21:00:30.521Z,17.43
2019-06-07T21:02:58.872Z,12.47
2019-06-07T21:05:26.117Z,19.33
2019-06-07T21:07:53.204Z,15.43
2019-06-07T21:10:22.317Z,18.33
2019-06-07T21:12:49.396Z,17.23
2019-06-07T21:15:16.481Z,14.40
2019-06-07T21:17:43.578Z,16.43
2019-06-07T21:20:14.231Z,14.83
2019-06-07T21:22:39.656Z,17.27
2019-06-07T21:25:09.251Z,16.00
2019-06-07T21:27:36.749Z,19.97
2019-06-07T21:30:05.169Z,17.43
2019-06-07T21:32:32.241Z,15.50
2019-06-07T21:35:01.775Z,13.77
2019-06-07T21:37:29.000Z,16.57
2019-06-07T21:39:56.086Z,17.13
2019-06-07T21:42:23.235Z,16.97
2019-06-07T21:44:50.307Z,15.97
2019-06-07T21:47:17.392Z,16.37
2019-06-07T21:49:44.467Z,17.17
2019-06-07T21:52:12.665Z,15.80
2019-06-07T21:54:40.154Z,14.13
2019-06-07T21:57:07.215Z,18.23
2019-06-07T21:59:34.283Z,19.70
2019-06-07T22:02:01.369Z,13.57
2019-06-07T22:04:28.447Z,16.73
2019-06-07T22:06:55.534Z,17.77
2019-06-07T22:09:22.623Z,15.10
2019-06-07T22:11:49.707Z,14.97
2019-06-07T22:14:16.800Z,14.67
2019-06-07T22:16:43.881Z,15.33
2019-06-07T22:19:10.959Z,15.80
2019-06-07T22:21:38.034Z,13.17
2019-06-07T22:24:05.111Z,17.13
2019-06-07T22:26:32.238Z,13.50
2019-06-07T22:28:59.309Z,13.73
2019-06-07T22:31:26.393Z,14.60
2019-06-07T22:33:53.470Z,16.43
2019-06-07T22:36:20.557Z,16.60
2019-06-07T22:38:47.642Z,14.80
2019-06-07T22:41:15.931Z,13.60
2019-06-07T22:43:43.226Z,16.57
2019-06-07T22:46:13.000Z,14.97
2019-06-07T22:48:40.143Z,14.87
2019-06-07T22:51:09.409Z,14.60
2019-06-07T22:53:43.690Z,13.83
2019-06-07T22:56:34.828Z,12.93
2019-06-07T22:59:02.108Z,13.30
2019-06-07T23:01:29.187Z,13.43
2019-06-07T23:03:56.277Z,14.13
2019-06-07T23:06:23.365Z,15.10
2019-06-07T23:08:50.441Z,14.20
2019-06-07T23:11:17.519Z,16.93
2019-06-07T23:13:44.619Z,13.37
2019-06-07T23:16:11.708Z,13.93
2019-06-07T23:18:38.799Z,15.57
2019-06-07T23:21:05.875Z,13.70
2019-06-07T23:23:34.054Z,14.77
2019-06-07T23:26:01.134Z,13.90
2019-06-07T23:28:28.211Z,15.77
2019-06-07T23:30:55.300Z,14.03
2019-06-07T23:33:23.486Z,14.57
2019-06-07T23:35:50.569Z,15.10
2019-06-07T23:38:17.649Z,14.43
2019-06-07T23:40:44.715Z,15.57
2019-06-07T23:43:13.364Z,12.97
2019-06-07T23:45:40.582Z,13.70
2019-06-07T23:48:07.653Z,12.03
2019-06-07T23:50:34.742Z,13.23
2019-06-07T23:53:01.807Z,13.17
2019-06-07T23:55:28.884Z,14.97
2019-06-07T23:57:55.955Z,13.17
